sensor_id;sensor_type;location;lat;lon;timestamp;pressure;altitude;pressure_sealevel;temperature;humidity
58373;BME280;44177;43.356;27.672;2023-04-20T00:01:36;97614.03;;;8.40;93.64
58373;BME280;44177;43.356;27.672;2023-04-20T00:04:02;97604.19;;;8.35;93.53
58373;BME280;44177;43.356;27.672;2023-04-20T00:06:27;97608.91;;;8.38;93.45
58373;BME280;44177;43.356;27.672;2023-04-20T00:08:54;97607.75;;;8.24;93.86
58373;BME280;44177;43.356;27.672;2023-04-20T00:11:20;97612.97;;;8.16;95.19
58373;BME280;44177;43.356;27.672;2023-04-20T00:13:45;97606.16;;;8.22;96.04
58373;BME280;44177;43.356;27.672;2023-04-20T00:16:11;97606.47;;;8.21;96.34
58373;BME280;44177;43.356;27.672;2023-04-20T00:18:36;97607.97;;;8.18;96.61
58373;BME280;44177;43.356;27.672;2023-04-20T00:21:02;97591.66;;;8.18;96.69
58373;BME280;44177;43.356;27.672;2023-04-20T00:23:27;97593.34;;;8.23;96.44
58373;BME280;44177;43.356;27.672;2023-04-20T00:25:53;97593.69;;;8.21;96.53
58373;BME280;44177;43.356;27.672;2023-04-20T00:28:18;97591.53;;;8.27;96.93
58373;BME280;44177;43.356;27.672;2023-04-20T00:30:44;97581.78;;;8.26;96.62
58373;BME280;44177;43.356;27.672;2023-04-20T00:33:09;97578.28;;;8.26;96.68
58373;BME280;44177;43.356;27.672;2023-04-20T00:35:35;97592.59;;;8.51;95.47
58373;BME280;44177;43.356;27.672;2023-04-20T00:38:00;97581.63;;;8.47;94.89
58373;BME280;44177;43.356;27.672;2023-04-20T00:40:26;97589.72;;;8.60;94.31
58373;BME280;44177;43.356;27.672;2023-04-20T00:42:51;97589.72;;;8.60;93.45
58373;BME280;44177;43.356;27.672;2023-04-20T00:45:17;97597.88;;;8.60;92.34
58373;BME280;44177;43.356;27.672;2023-04-20T00:47:42;97594.97;;;8.52;92.62
58373;BME280;44177;43.356;27.672;2023-04-20T00:50:09;97605.06;;;8.40;93.00
58373;BME280;44177;43.356;27.672;2023-04-20T00:52:35;97597.00;;;8.15;94.25
58373;BME280;44177;43.356;27.672;2023-04-20T00:55:01;97587.97;;;8.11;94.85
58373;BME280;44177;43.356;27.672;2023-04-20T00:57:27;97598.47;;;8.12;94.88
58373;BME280;44177;43.356;27.672;2023-04-20T00:59:53;97592.16;;;8.08;95.07
58373;BME280;44177;43.356;27.672;2023-04-20T01:02:18;97584.44;;;8.10;94.76
58373;BME280;44177;43.356;27.672;2023-04-20T01:04:45;97584.69;;;8.05;95.34
58373;BME280;44177;43.356;27.672;2023-04-20T01:07:11;97592.84;;;8.05;95.28
58373;BME280;44177;43.356;27.672;2023-04-20T01:09:37;97588.91;;;8.02;95.35
58373;BME280;44177;43.356;27.672;2023-04-20T01:12:09;97585.16;;;7.95;95.77
58373;BME280;44177;43.356;27.672;2023-04-20T01:14:35;97575.59;;;7.85;95.47
58373;BME280;44177;43.356;27.672;2023-04-20T01:17:01;97587.47;;;7.93;96.05
58373;BME280;44177;43.356;27.672;2023-04-20T01:19:30;97584.66;;;7.89;95.78
58373;BME280;44177;43.356;27.672;2023-04-20T01:21:56;97583.59;;;7.94;95.55
58373;BME280;44177;43.356;27.672;2023-04-20T01:24:21;97586.63;;;8.04;95.11
58373;BME280;44177;43.356;27.672;2023-04-20T01:26:47;97583.38;;;7.99;94.78
58373;BME280;44177;43.356;27.672;2023-04-20T01:29:12;97567.75;;;7.96;94.88
58373;BME280;44177;43.356;27.672;2023-04-20T01:31:37;97580.97;;;7.97;94.73
58373;BME280;44177;43.356;27.672;2023-04-20T01:34:03;97577.13;;;7.98;94.58
58373;BME280;44177;43.356;27.672;2023-04-20T01:36:28;97568.88;;;7.95;94.96
58373;BME280;44177;43.356;27.672;2023-04-20T01:38:54;97586.19;;;8.02;95.14
58373;BME280;44177;43.356;27.672;2023-04-20T01:41:20;97578.50;;;8.04;95.55
58373;BME280;44177;43.356;27.672;2023-04-20T01:43:45;97572.50;;;7.99;96.01
58373;BME280;44177;43.356;27.672;2023-04-20T01:46:11;97579.25;;;8.05;96.40
58373;BME280;44177;43.356;27.672;2023-04-20T01:48:36;97562.97;;;8.05;96.43
58373;BME280;44177;43.356;27.672;2023-04-20T01:51:02;97560.69;;;8.07;96.04
58373;BME280;44177;43.356;27.672;2023-04-20T01:53:27;97575.75;;;8.33;93.79
58373;BME280;44177;43.356;27.672;2023-04-20T01:55:53;97576.47;;;8.30;93.15
58373;BME280;44177;43.356;27.672;2023-04-20T01:58:19;97591.09;;;8.25;93.11
58373;BME280;44177;43.356;27.672;2023-04-20T02:00:44;97592.22;;;8.24;93.15
58373;BME280;44177;43.356;27.672;2023-04-20T02:03:10;97594.16;;;8.24;93.78
58373;BME280;44177;43.356;27.672;2023-04-20T02:05:35;97589.50;;;8.24;94.41
58373;BME280;44177;43.356;27.672;2023-04-20T02:08:01;97574.59;;;8.18;95.12
58373;BME280;44177;43.356;27.672;2023-04-20T02:10:26;97585.28;;;8.27;95.42
58373;BME280;44177;43.356;27.672;2023-04-20T02:12:52;97587.22;;;8.26;96.06
58373;BME280;44177;43.356;27.672;2023-04-20T02:15:17;97581.00;;;8.26;97.10
58373;BME280;44177;43.356;27.672;2023-04-20T02:17:43;97584.25;;;8.31;97.19
58373;BME280;44177;43.356;27.672;2023-04-20T02:20:10;97596.91;;;8.40;97.39
58373;BME280;44177;43.356;27.672;2023-04-20T02:22:37;97591.47;;;8.40;96.69
58373;BME280;44177;43.356;27.672;2023-04-20T02:25:04;97575.06;;;8.36;96.34
58373;BME280;44177;43.356;27.672;2023-04-20T02:27:33;97584.38;;;8.63;95.06
58373;BME280;44177;43.356;27.672;2023-04-20T02:29:59;97580.59;;;8.68;94.35
58373;BME280;44177;43.356;27.672;2023-04-20T02:32:25;97586.03;;;8.68;94.45
58373;BME280;44177;43.356;27.672;2023-04-20T02:34:51;97583.63;;;8.50;95.02
58373;BME280;44177;43.356;27.672;2023-04-20T02:37:16;97586.44;;;8.54;95.76
58373;BME280;44177;43.356;27.672;2023-04-20T02:39:42;97579.88;;;8.55;95.99
58373;BME280;44177;43.356;27.672;2023-04-20T02:42:07;97580.88;;;8.63;96.13
58373;BME280;44177;43.356;27.672;2023-04-20T02:44:33;97569.22;;;8.78;96.26
58373;BME280;44177;43.356;27.672;2023-04-20T02:46:58;97573.34;;;8.88;94.78
58373;BME280;44177;43.356;27.672;2023-04-20T02:49:24;97579.84;;;8.99;94.05
58373;BME280;44177;43.356;27.672;2023-04-20T02:51:49;97576.50;;;9.06;92.66
58373;BME280;44177;43.356;27.672;2023-04-20T02:54:15;97544.28;;;8.92;92.07
58373;BME280;44177;43.356;27.672;2023-04-20T02:56:41;97564.75;;;9.02;91.67
58373;BME280;44177;43.356;27.672;2023-04-20T02:59:06;97573.00;;;9.06;92.45
58373;BME280;44177;43.356;27.672;2023-04-20T03:01:32;97570.69;;;9.08;92.43
58373;BME280;44177;43.356;27.672;2023-04-20T03:03:57;97571.22;;;9.13;92.45
58373;BME280;44177;43.356;27.672;2023-04-20T03:06:22;97570.53;;;9.16;91.93
58373;BME280;44177;43.356;27.672;2023-04-20T03:08:48;97562.09;;;9.22;91.48
58373;BME280;44177;43.356;27.672;2023-04-20T03:11:13;97564.91;;;9.25;91.20
58373;BME280;44177;43.356;27.672;2023-04-20T03:13:39;97564.91;;;9.25;91.43
58373;BME280;44177;43.356;27.672;2023-04-20T03:16:05;97567.19;;;9.23;90.97
58373;BME280;44177;43.356;27.672;2023-04-20T03:18:31;97562.97;;;9.26;90.62
58373;BME280;44177;43.356;27.672;2023-04-20T03:20:56;97564.97;;;9.29;90.48
58373;BME280;44177;43.356;27.672;2023-04-20T03:23:22;97568.50;;;9.13;90.96
58373;BME280;44177;43.356;27.672;2023-04-20T03:25:47;97565.63;;;9.06;91.83
58373;BME280;44177;43.356;27.672;2023-04-20T03:28:14;97571.56;;;8.96;91.65
58373;BME280;44177;43.356;27.672;2023-04-20T03:30:40;97557.38;;;8.87;92.32
58373;BME280;44177;43.356;27.672;2023-04-20T03:33:06;97563.00;;;8.94;92.37
58373;BME280;44177;43.356;27.672;2023-04-20T03:35:31;97572.63;;;9.07;92.32
58373;BME280;44177;43.356;27.672;2023-04-20T03:37:57;97567.88;;;9.04;92.36
58373;BME280;44177;43.356;27.672;2023-04-20T03:40:23;97536.56;;;8.94;92.45
58373;BME280;44177;43.356;27.672;2023-04-20T03:42:48;97566.91;;;9.12;91.98
58373;BME280;44177;43.356;27.672;2023-04-20T03:45:14;97567.00;;;9.16;92.09
58373;BME280;44177;43.356;27.672;2023-04-20T03:47:39;97570.16;;;9.18;91.24
58373;BME280;44177;43.356;27.672;2023-04-20T03:50:06;97561.47;;;9.12;91.21
58373;BME280;44177;43.356;27.672;2023-04-20T03:52:31;97560.09;;;9.19;90.88
58373;BME280;44177;43.356;27.672;2023-04-20T03:54:57;97550.75;;;9.20;90.34
58373;BME280;44177;43.356;27.672;2023-04-20T03:57:22;97561.13;;;9.30;89.45
58373;BME280;44177;43.356;27.672;2023-04-20T03:59:48;97557.16;;;9.27;89.46
58373;BME280;44177;43.356;27.672;2023-04-20T04:02:13;97563.34;;;9.08;90.35
58373;BME280;44177;43.356;27.672;2023-04-20T04:04:40;97567.28;;;9.11;90.71
58373;BME280;44177;43.356;27.672;2023-04-20T04:07:05;97566.56;;;8.98;91.48
58373;BME280;44177;43.356;27.672;2023-04-20T04:09:31;97570.81;;;9.11;91.46
58373;BME280;44177;43.356;27.672;2023-04-20T04:11:57;97575.09;;;9.12;91.40
58373;BME280;44177;43.356;27.672;2023-04-20T04:14:22;97577.38;;;9.10;91.93
58373;BME280;44177;43.356;27.672;2023-04-20T04:16:48;97574.13;;;9.21;91.71
58373;BME280;44177;43.356;27.672;2023-04-20T04:19:13;97575.38;;;9.23;92.21
58373;BME280;44177;43.356;27.672;2023-04-20T04:21:39;97568.06;;;9.27;92.03
58373;BME280;44177;43.356;27.672;2023-04-20T04:24:05;97565.78;;;9.29;92.40
58373;BME280;44177;43.356;27.672;2023-04-20T04:26:31;97571.56;;;9.44;92.11
58373;BME280;44177;43.356;27.672;2023-04-20T04:28:58;97569.97;;;9.43;92.12
58373;BME280;44177;43.356;27.672;2023-04-20T04:31:24;97586.22;;;9.39;92.81
58373;BME280;44177;43.356;27.672;2023-04-20T04:33:49;97573.13;;;9.29;92.97
58373;BME280;44177;43.356;27.672;2023-04-20T04:36:15;97580.50;;;9.44;92.71
58373;BME280;44177;43.356;27.672;2023-04-20T04:38:41;97592.09;;;9.41;92.63
58373;BME280;44177;43.356;27.672;2023-04-20T04:41:09;97589.22;;;9.34;94.26
58373;BME280;44177;43.356;27.672;2023-04-20T04:43:37;97592.31;;;9.16;95.79
58373;BME280;44177;43.356;27.672;2023-04-20T04:46:07;97594.56;;;9.14;96.39
58373;BME280;44177;43.356;27.672;2023-04-20T04:48:36;97598.72;;;9.08;97.73
58373;BME280;44177;43.356;27.672;2023-04-20T04:51:02;97590.63;;;8.96;98.96
58373;BME280;44177;43.356;27.672;2023-04-20T04:53:28;97605.72;;;9.09;99.35
58373;BME280;44177;43.356;27.672;2023-04-20T04:55:54;97603.88;;;9.13;99.21
58373;BME280;44177;43.356;27.672;2023-04-20T04:58:19;97603.00;;;9.09;99.55
58373;BME280;44177;43.356;27.672;2023-04-20T05:00:45;97602.47;;;9.04;100.00
58373;BME280;44177;43.356;27.672;2023-04-20T05:03:10;97602.56;;;9.07;100.00
58373;BME280;44177;43.356;27.672;2023-04-20T05:05:36;97585.88;;;9.09;100.00
58373;BME280;44177;43.356;27.672;2023-04-20T05:08:01;97581.94;;;9.06;100.00
58373;BME280;44177;43.356;27.672;2023-04-20T05:10:27;97601.97;;;9.14;100.00
58373;BME280;44177;43.356;27.672;2023-04-20T05:12:52;97598.72;;;9.08;100.00
58373;BME280;44177;43.356;27.672;2023-04-20T05:15:18;97591.06;;;9.14;100.00
58373;BME280;44177;43.356;27.672;2023-04-20T05:17:43;97602.75;;;9.14;100.00
58373;BME280;44177;43.356;27.672;2023-04-20T05:20:09;97609.25;;;9.26;100.00
58373;BME280;44177;43.356;27.672;2023-04-20T05:22:36;97606.16;;;9.27;100.00
58373;BME280;44177;43.356;27.672;2023-04-20T05:25:02;97599.94;;;9.27;100.00
58373;BME280;44177;43.356;27.672;2023-04-20T05:27:27;97595.34;;;9.31;100.00
58373;BME280;44177;43.356;27.672;2023-04-20T05:29:53;97594.09;;;9.44;100.00
58373;BME280;44177;43.356;27.672;2023-04-20T05:32:18;97604.31;;;9.47;100.00
58373;BME280;44177;43.356;27.672;2023-04-20T05:34:43;97605.00;;;9.44;100.00
58373;BME280;44177;43.356;27.672;2023-04-20T05:37:09;97605.44;;;9.46;100.00
58373;BME280;44177;43.356;27.672;2023-04-20T05:39:35;97607.09;;;9.51;100.00
58373;BME280;44177;43.356;27.672;2023-04-20T05:42:00;97608.16;;;9.62;100.00
58373;BME280;44177;43.356;27.672;2023-04-20T05:44:26;97610.97;;;9.86;99.21
58373;BME280;44177;43.356;27.672;2023-04-20T05:46:51;97600.97;;;9.90;98.44
58373;BME280;44177;43.356;27.672;2023-04-20T05:49:17;97602.25;;;9.96;97.26
58373;BME280;44177;43.356;27.672;2023-04-20T05:51:42;97609.22;;;9.93;97.63
58373;BME280;44177;43.356;27.672;2023-04-20T05:54:08;97604.53;;;9.94;97.30
58373;BME280;44177;43.356;27.672;2023-04-20T05:56:34;97606.28;;;10.02;96.35
58373;BME280;44177;43.356;27.672;2023-04-20T05:59:00;97602.59;;;9.94;96.67
58373;BME280;44177;43.356;27.672;2023-04-20T06:01:25;97616.03;;;10.03;96.75
58373;BME280;44177;43.356;27.672;2023-04-20T06:03:51;97614.00;;;10.00;95.84
58373;BME280;44177;43.356;27.672;2023-04-20T06:06:17;97619.53;;;10.04;95.64
58373;BME280;44177;43.356;27.672;2023-04-20T06:08:42;97608.47;;;9.96;95.39
58373;BME280;44177;43.356;27.672;2023-04-20T06:11:08;97611.72;;;10.02;95.19
58373;BME280;44177;43.356;27.672;2023-04-20T06:13:34;97613.22;;;10.00;95.33
58373;BME280;44177;43.356;27.672;2023-04-20T06:15:59;97618.03;;;10.06;95.62
58373;BME280;44177;43.356;27.672;2023-04-20T06:18:24;97610.59;;;10.03;94.68
58373;BME280;44177;43.356;27.672;2023-04-20T06:20:50;97609.69;;;9.99;95.94
58373;BME280;44177;43.356;27.672;2023-04-20T06:23:15;97597.66;;;10.00;95.03
58373;BME280;44177;43.356;27.672;2023-04-20T06:25:41;97600.69;;;9.95;95.71
58373;BME280;44177;43.356;27.672;2023-04-20T06:28:06;97612.44;;;9.99;95.69
58373;BME280;44177;43.356;27.672;2023-04-20T06:30:33;97601.75;;;9.90;96.73
58373;BME280;44177;43.356;27.672;2023-04-20T06:33:00;97619.03;;;9.98;97.35
58373;BME280;44177;43.356;27.672;2023-04-20T06:35:26;97624.91;;;10.00;97.35
58373;BME280;44177;43.356;27.672;2023-04-20T06:37:52;97619.91;;;10.02;97.94
58373;BME280;44177;43.356;27.672;2023-04-20T06:40:18;97622.47;;;10.15;97.47
58373;BME280;44177;43.356;27.672;2023-04-20T06:42:44;97621.78;;;10.18;97.45
58373;BME280;44177;43.356;27.672;2023-04-20T06:45:10;97619.75;;;10.15;98.19
58373;BME280;44177;43.356;27.672;2023-04-20T06:47:35;97608.28;;;10.05;98.01
58373;BME280;44177;43.356;27.672;2023-04-20T06:50:03;97618.13;;;10.10;97.98
58373;BME280;44177;43.356;27.672;2023-04-20T06:52:31;97619.38;;;9.96;98.58
58373;BME280;44177;43.356;27.672;2023-04-20T06:54:57;97628.84;;;10.03;99.82
58373;BME280;44177;43.356;27.672;2023-04-20T06:57:24;97620.88;;;9.94;99.47
58373;BME280;44177;43.356;27.672;2023-04-20T06:59:49;97624.28;;;10.07;99.74
58373;BME280;44177;43.356;27.672;2023-04-20T07:02:15;97619.59;;;10.07;99.04
58373;BME280;44177;43.356;27.672;2023-04-20T07:04:40;97625.00;;;10.23;99.45
58373;BME280;44177;43.356;27.672;2023-04-20T07:07:05;97629.28;;;10.40;98.63
58373;BME280;44177;43.356;27.672;2023-04-20T07:09:31;97610.63;;;10.42;97.62
58373;BME280;44177;43.356;27.672;2023-04-20T07:11:56;97629.72;;;10.42;97.13
58373;BME280;44177;43.356;27.672;2023-04-20T07:14:22;97621.97;;;10.45;97.44
58373;BME280;44177;43.356;27.672;2023-04-20T07:16:51;97628.13;;;10.41;97.32
58373;BME280;44177;43.356;27.672;2023-04-20T07:19:16;97624.25;;;10.42;97.05
58373;BME280;44177;43.356;27.672;2023-04-20T07:21:42;97620.38;;;10.43;96.68
58373;BME280;44177;43.356;27.672;2023-04-20T07:24:07;97621.16;;;10.44;96.41
58373;BME280;44177;43.356;27.672;2023-04-20T07:26:33;97616.47;;;10.64;96.60
58373;BME280;44177;43.356;27.672;2023-04-20T07:28:58;97627.19;;;10.73;96.29
58373;BME280;44177;43.356;27.672;2023-04-20T07:31:24;97626.22;;;10.85;95.85
58373;BME280;44177;43.356;27.672;2023-04-20T07:33:49;97625.44;;;11.08;95.40
58373;BME280;44177;43.356;27.672;2023-04-20T07:36:15;97636.56;;;11.18;94.72
58373;BME280;44177;43.356;27.672;2023-04-20T07:38:40;97638.75;;;11.59;93.92
58373;BME280;44177;43.356;27.672;2023-04-20T07:41:09;97637.19;;;11.85;93.68
58373;BME280;44177;43.356;27.672;2023-04-20T07:43:35;97634.03;;;11.56;90.87
58373;BME280;44177;43.356;27.672;2023-04-20T07:46:01;97630.88;;;11.54;90.65
58373;BME280;44177;43.356;27.672;2023-04-20T07:48:26;97630.97;;;11.88;91.95
58373;BME280;44177;43.356;27.672;2023-04-20T07:50:52;97635.09;;;12.02;90.33
58373;BME280;44177;43.356;27.672;2023-04-20T07:53:17;97616.69;;;11.98;89.49
58373;BME280;44177;43.356;27.672;2023-04-20T07:55:43;97631.66;;;12.08;89.39
58373;BME280;44177;43.356;27.672;2023-04-20T07:58:08;97630.66;;;11.93;88.58
58373;BME280;44177;43.356;27.672;2023-04-20T08:00:34;97640.22;;;11.80;87.56
58373;BME280;44177;43.356;27.672;2023-04-20T08:03:00;97644.22;;;11.59;87.91
58373;BME280;44177;43.356;27.672;2023-04-20T08:05:25;97643.50;;;11.62;88.47
58373;BME280;44177;43.356;27.672;2023-04-20T08:07:51;97638.66;;;11.79;89.25
58373;BME280;44177;43.356;27.672;2023-04-20T08:10:17;97630.25;;;12.18;87.90
58373;BME280;44177;43.356;27.672;2023-04-20T08:12:42;97638.22;;;12.30;86.43
58373;BME280;44177;43.356;27.672;2023-04-20T08:15:08;97626.75;;;12.21;86.79
58373;BME280;44177;43.356;27.672;2023-04-20T08:17:34;97631.19;;;12.33;85.83
58373;BME280;44177;43.356;27.672;2023-04-20T08:20:00;97637.84;;;12.66;85.66
58373;BME280;44177;43.356;27.672;2023-04-20T08:22:25;97627.69;;;13.49;83.84
58373;BME280;44177;43.356;27.672;2023-04-20T08:24:55;97632.44;;;13.56;79.58
58373;BME280;44177;43.356;27.672;2023-04-20T08:27:21;97630.47;;;13.11;80.22
58373;BME280;44177;43.356;27.672;2023-04-20T08:29:46;97629.31;;;12.75;80.72
58373;BME280;44177;43.356;27.672;2023-04-20T08:32:12;97626.53;;;12.34;82.44
58373;BME280;44177;43.356;27.672;2023-04-20T08:34:38;97642.56;;;12.05;83.68
58373;BME280;44177;43.356;27.672;2023-04-20T08:37:04;97626.63;;;11.83;84.05
58373;BME280;44177;43.356;27.672;2023-04-20T08:39:30;97649.91;;;11.74;84.50
58373;BME280;44177;43.356;27.672;2023-04-20T08:41:56;97634.44;;;11.58;85.17
58373;BME280;44177;43.356;27.672;2023-04-20T08:44:23;97653.69;;;11.65;87.00
58373;BME280;44177;43.356;27.672;2023-04-20T08:46:49;97650.59;;;11.67;86.74
58373;BME280;44177;43.356;27.672;2023-04-20T08:49:15;97649.69;;;11.59;86.55
58373;BME280;44177;43.356;27.672;2023-04-20T08:51:42;97650.34;;;11.52;88.42
58373;BME280;44177;43.356;27.672;2023-04-20T08:54:10;97658.31;;;11.61;89.03
58373;BME280;44177;43.356;27.672;2023-04-20T08:56:40;97660.56;;;11.56;89.21
58373;BME280;44177;43.356;27.672;2023-04-20T08:59:07;97652.41;;;11.59;89.03
58373;BME280;44177;43.356;27.672;2023-04-20T09:01:37;97651.28;;;11.87;90.82
58373;BME280;44177;43.356;27.672;2023-04-20T09:06:45;97644.84;;;11.76;90.56
58373;BME280;44177;43.356;27.672;2023-04-20T09:09:11;97646.91;;;11.82;90.36
58373;BME280;44177;43.356;27.672;2023-04-20T09:11:37;97643.31;;;12.02;91.73
58373;BME280;44177;43.356;27.672;2023-04-20T09:14:04;97649.59;;;12.06;91.55
58373;BME280;44177;43.356;27.672;2023-04-20T09:16:58;97643.09;;;11.87;89.93
58373;BME280;44177;43.356;27.672;2023-04-20T09:19:30;97653.47;;;11.78;90.92
58373;BME280;44177;43.356;27.672;2023-04-20T09:22:00;97659.84;;;11.85;90.40
58373;BME280;44177;43.356;27.672;2023-04-20T09:24:35;97644.97;;;12.10;90.56
58373;BME280;44177;43.356;27.672;2023-04-20T09:27:13;97648.78;;;12.32;88.98
58373;BME280;44177;43.356;27.672;2023-04-20T09:29:38;97654.72;;;12.38;87.45
58373;BME280;44177;43.356;27.672;2023-04-20T09:32:04;97651.19;;;12.37;87.83
58373;BME280;44177;43.356;27.672;2023-04-20T09:34:29;97652.78;;;12.38;87.23
58373;BME280;44177;43.356;27.672;2023-04-20T09:36:56;97642.94;;;12.34;87.67
58373;BME280;44177;43.356;27.672;2023-04-20T09:39:23;97656.78;;;12.48;87.25
58373;BME280;44177;43.356;27.672;2023-04-20T09:41:50;97655.56;;;12.42;86.07
58373;BME280;44177;43.356;27.672;2023-04-20T09:44:16;97652.84;;;12.45;85.92
58373;BME280;44177;43.356;27.672;2023-04-20T09:46:43;97644.91;;;12.37;86.38
58373;BME280;44177;43.356;27.672;2023-04-20T09:49:10;97642.81;;;12.23;85.49
58373;BME280;44177;43.356;27.672;2023-04-20T09:51:38;97648.31;;;12.26;85.97
58373;BME280;44177;43.356;27.672;2023-04-20T09:54:06;97639.78;;;12.01;86.19
58373;BME280;44177;43.356;27.672;2023-04-20T09:56:33;97643.81;;;11.84;87.02
58373;BME280;44177;43.356;27.672;2023-04-20T09:59:00;97648.63;;;11.67;87.12
58373;BME280;44177;43.356;27.672;2023-04-20T10:01:29;97638.56;;;11.72;86.34
58373;BME280;44177;43.356;27.672;2023-04-20T10:03:56;97651.22;;;11.83;85.14
58373;BME280;44177;43.356;27.672;2023-04-20T10:06:25;97654.84;;;11.91;86.60
58373;BME280;44177;43.356;27.672;2023-04-20T10:08:52;97651.22;;;11.83;86.59
58373;BME280;44177;43.356;27.672;2023-04-20T10:11:28;97652.66;;;12.00;87.35
58373;BME280;44177;43.356;27.672;2023-04-20T10:13:54;97650.59;;;12.21;86.55
58373;BME280;44177;43.356;27.672;2023-04-20T10:16:20;97637.41;;;11.99;85.67
58373;BME280;44177;43.356;27.672;2023-04-20T10:19:15;97656.81;;;11.91;86.25
58373;BME280;44177;43.356;27.672;2023-04-20T10:21:48;97649.50;;;11.98;86.47
58373;BME280;44177;43.356;27.672;2023-04-20T10:24:15;97649.31;;;12.11;86.22
58373;BME280;44177;43.356;27.672;2023-04-20T10:26:52;97653.31;;;12.21;86.47
58373;BME280;44177;43.356;27.672;2023-04-20T10:29:27;97659.66;;;12.28;85.73
58373;BME280;44177;43.356;27.672;2023-04-20T10:31:53;97661.56;;;12.24;85.55
58373;BME280;44177;43.356;27.672;2023-04-20T10:34:35;97659.53;;;12.18;85.71
58373;BME280;44177;43.356;27.672;2023-04-20T10:37:12;97662.16;;;12.10;86.16
58373;BME280;44177;43.356;27.672;2023-04-20T10:39:45;97664.53;;;12.12;85.79
58373;BME280;44177;43.356;27.672;2023-04-20T10:42:11;97661.25;;;11.99;85.02
58373;BME280;44177;43.356;27.672;2023-04-20T10:44:49;97661.88;;;11.92;85.60
58373;BME280;44177;43.356;27.672;2023-04-20T10:47:16;97668.94;;;11.93;85.65
58373;BME280;44177;43.356;27.672;2023-04-20T10:49:42;97661.56;;;12.24;85.62
58373;BME280;44177;43.356;27.672;2023-04-20T10:52:08;97656.41;;;12.50;85.02
58373;BME280;44177;43.356;27.672;2023-04-20T10:54:38;97652.84;;;12.79;83.27
58373;BME280;44177;43.356;27.672;2023-04-20T10:57:04;97652.72;;;13.06;82.95
58373;BME280;44177;43.356;27.672;2023-04-20T10:59:31;97654.63;;;13.40;81.80
58373;BME280;44177;43.356;27.672;2023-04-20T11:01:57;97647.06;;;13.78;78.96
58373;BME280;44177;43.356;27.672;2023-04-20T11:04:29;97654.09;;;14.42;76.50
58373;BME280;44177;43.356;27.672;2023-04-20T11:07:03;97643.19;;;14.60;75.20
58373;BME280;44177;43.356;27.672;2023-04-20T11:09:31;97643.28;;;14.78;73.43
58373;BME280;44177;43.356;27.672;2023-04-20T11:12:09;97646.31;;;14.59;73.30
58373;BME280;44177;43.356;27.672;2023-04-20T11:14:57;97659.38;;;13.99;74.72
58373;BME280;44177;43.356;27.672;2023-04-20T11:17:35;97655.19;;;13.64;76.05
58373;BME280;44177;43.356;27.672;2023-04-20T11:20:18;97653.31;;;13.26;76.15
58373;BME280;44177;43.356;27.672;2023-04-20T11:22:55;97645.25;;;13.03;75.89
58373;BME280;44177;43.356;27.672;2023-04-20T11:25:22;97641.69;;;12.95;75.64
58373;BME280;44177;43.356;27.672;2023-04-20T11:27:48;97643.28;;;13.00;76.48
58373;BME280;44177;43.356;27.672;2023-04-20T11:30:13;97647.22;;;13.03;76.48
58373;BME280;44177;43.356;27.672;2023-04-20T11:32:39;97631.13;;;12.94;77.37
58373;BME280;44177;43.356;27.672;2023-04-20T11:35:07;97646.94;;;13.15;78.30
58373;BME280;44177;43.356;27.672;2023-04-20T11:37:45;97635.34;;;13.29;77.19
58373;BME280;44177;43.356;27.672;2023-04-20T11:40:11;97630.78;;;13.44;75.90
58373;BME280;44177;43.356;27.672;2023-04-20T11:42:37;97635.28;;;13.22;75.63
58373;BME280;44177;43.356;27.672;2023-04-20T11:45:04;97607.16;;;12.84;76.14
58373;BME280;44177;43.356;27.672;2023-04-20T11:47:29;97640.66;;;12.73;75.99
58373;BME280;44177;43.356;27.672;2023-04-20T11:49:55;97648.75;;;12.62;77.26
58373;BME280;44177;43.356;27.672;2023-04-20T11:52:20;97627.78;;;12.40;77.55
58373;BME280;44177;43.356;27.672;2023-04-20T11:54:46;97637.88;;;12.36;78.21
58373;BME280;44177;43.356;27.672;2023-04-20T11:57:11;97620.69;;;12.35;78.19
58373;BME280;44177;43.356;27.672;2023-04-20T11:59:37;97641.56;;;12.51;77.88
58373;BME280;44177;43.356;27.672;2023-04-20T12:02:03;97631.56;;;12.62;77.44
58373;BME280;44177;43.356;27.672;2023-04-20T12:04:30;97639.00;;;13.03;75.51
58373;BME280;44177;43.356;27.672;2023-04-20T12:06:55;97638.66;;;13.08;74.56
58373;BME280;44177;43.356;27.672;2023-04-20T12:09:24;97639.13;;;13.17;75.16
58373;BME280;44177;43.356;27.672;2023-04-20T12:11:49;97626.06;;;13.41;75.74
58373;BME280;44177;43.356;27.672;2023-04-20T12:14:15;97630.25;;;13.27;74.23
58373;BME280;44177;43.356;27.672;2023-04-20T12:16:41;97629.69;;;13.11;74.61
58373;BME280;44177;43.356;27.672;2023-04-20T12:19:06;97637.22;;;13.21;76.14
58373;BME280;44177;43.356;27.672;2023-04-20T12:21:33;97642.34;;;13.26;75.99
58373;BME280;44177;43.356;27.672;2023-04-20T12:23:59;97638.50;;;13.35;75.11
58373;BME280;44177;43.356;27.672;2023-04-20T12:26:24;97641.75;;;13.44;75.74
58373;BME280;44177;43.356;27.672;2023-04-20T12:28:50;97635.19;;;13.56;75.13
58373;BME280;44177;43.356;27.672;2023-04-20T12:31:16;97635.34;;;13.33;73.71
58373;BME280;44177;43.356;27.672;2023-04-20T12:33:41;97624.63;;;13.13;75.02
58373;BME280;44177;43.356;27.672;2023-04-20T12:36:08;97625.25;;;12.95;76.51
58373;BME280;44177;43.356;27.672;2023-04-20T12:38:33;97635.00;;;12.93;76.26
58373;BME280;44177;43.356;27.672;2023-04-20T12:40:58;97635.03;;;12.97;75.16
58373;BME280;44177;43.356;27.672;2023-04-20T12:43:24;97637.28;;;12.87;75.82
58373;BME280;44177;43.356;27.672;2023-04-20T12:45:50;97648.06;;;12.69;76.33
58373;BME280;44177;43.356;27.672;2023-04-20T12:48:15;97631.41;;;12.51;75.43
58373;BME280;44177;43.356;27.672;2023-04-20T12:50:41;97646.19;;;12.43;77.28
58373;BME280;44177;43.356;27.672;2023-04-20T12:53:06;97635.38;;;12.54;77.93
58373;BME280;44177;43.356;27.672;2023-04-20T12:55:32;97639.13;;;12.42;77.90